Time;durP1;ratioP1;P1;durP2;ratioP2;P2;SDS_P1;SDS_P2;PMS_P1;PMS_P2;Temp;Humidity;BMP_temperature;BMP_pressure;BME280_temperature;BME280_humidity;BME280_pressure;Samples;Min_cycle;Max_cycle;Signal;HPM_P1;HPM_P2
2023/03/22 00:00:28;;;;;;;12.50;6.10;;;;;;;;;;5017410;28;20574;-74
2023/03/22 00:03:32;;;;;;;15.00;7.40;;;;;;;;;;4993941;28;20516;-74
2023/03/22 00:06:36;;;;;;;11.07;6.37;;;;;;;;;;5017106;28;20185;-74
2023/03/22 00:09:40;;;;;;;14.23;6.10;;;;;;;;;;5017352;28;20181;-74
2023/03/22 00:12:44;;;;;;;11.80;6.47;;;;;;;;;;5017537;28;20182;-75
2023/03/22 00:15:48;;;;;;;13.80;6.43;;;;;;;;;;5017400;28;20181;-74
2023/03/22 00:18:52;;;;;;;10.40;5.70;;;;;;;;;;5016736;28;20216;-74
2023/03/22 00:21:56;;;;;;;11.07;5.93;;;;;;;;;;5016153;28;20539;-74
2023/03/22 00:25:00;;;;;;;9.90;6.13;;;;;;;;;;5005111;28;20201;-74
2023/03/22 00:28:05;;;;;;;11.07;6.07;;;;;;;;;;5016957;28;20233;-75
2023/03/22 00:31:09;;;;;;;9.30;5.33;;;;;;;;;;5015724;28;20201;-74
2023/03/22 00:34:13;;;;;;;8.97;5.73;;;;;;;;;;5004309;28;20229;-74
2023/03/22 00:37:17;;;;;;;12.73;6.63;;;;;;;;;;5016643;28;20225;-74
2023/03/22 00:40:25;;;;;;;8.90;5.90;;;;;;;;;;4993581;28;20178;-74
2023/03/22 00:43:30;;;;;;;9.10;6.07;;;;;;;;;;5004437;28;20666;-74
2023/03/22 00:46:34;;;;;;;8.00;6.00;;;;;;;;;;5004467;28;20185;-74
2023/03/22 00:49:38;;;;;;;9.17;5.23;;;;;;;;;;5015439;28;20185;-74
2023/03/22 00:52:42;;;;;;;7.83;5.73;;;;;;;;;;5015636;28;20182;-74
2023/03/22 00:55:46;;;;;;;6.60;5.53;;;;;;;;;;5018117;28;20554;-73
2023/03/22 00:58:50;;;;;;;7.93;5.23;;;;;;;;;;5015164;28;20229;-74
2023/03/22 01:01:56;;;;;;;8.27;5.07;;;;;;;;;;5004048;28;20198;-74
2023/03/22 01:05:01;;;;;;;6.97;4.80;;;;;;;;;;5004100;28;20197;-74
2023/03/22 01:08:07;;;;;;;5.60;5.00;;;;;;;;;;5003748;28;20225;-74
2023/03/22 01:11:12;;;;;;;5.53;4.53;;;;;;;;;;5015138;28;20194;-74
2023/03/22 01:14:15;;;;;;;10.27;5.47;;;;;;;;;;5016234;28;20547;-74
2023/03/22 01:17:20;;;;;;;8.63;4.90;;;;;;;;;;5021382;28;20228;-74
2023/03/22 01:20:24;;;;;;;6.73;5.43;;;;;;;;;;5012031;28;20184;-74
2023/03/22 01:23:29;;;;;;;7.57;6.10;;;;;;;;;;5035080;28;20189;-75
2023/03/22 01:26:34;;;;;;;7.83;5.90;;;;;;;;;;5034508;28;20196;-74
2023/03/22 01:29:39;;;;;;;9.07;5.73;;;;;;;;;;5023702;28;20185;-74
2023/03/22 01:32:43;;;;;;;7.97;6.40;;;;;;;;;;5034399;28;20193;-74
2023/03/22 01:35:47;;;;;;;10.33;7.07;;;;;;;;;;5023132;28;20177;-74
2023/03/22 01:38:51;;;;;;;8.00;6.53;;;;;;;;;;5034268;28;20220;-74
2023/03/22 01:41:56;;;;;;;9.43;6.80;;;;;;;;;;5003590;28;20190;-75
2023/03/22 01:45:13;;;;;;;8.63;6.80;;;;;;;;;;5023112;28;20204;-74
2023/03/22 01:48:28;;;;;;;8.57;6.73;;;;;;;;;;5022935;28;20220;-75
2023/03/22 01:51:33;;;;;;;9.00;7.00;;;;;;;;;;5022659;28;20201;-75
2023/03/22 01:54:48;;;;;;;10.40;6.77;;;;;;;;;;5011477;28;20224;-74
2023/03/22 01:58:17;;;;;;;8.73;6.43;;;;;;;;;;5023072;28;20228;-74
2023/03/22 02:01:28;;;;;;;12.73;6.90;;;;;;;;;;5024247;28;20185;-75
2023/03/22 02:04:34;;;;;;;8.80;6.17;;;;;;;;;;5034600;28;20181;-75
2023/03/22 02:07:42;;;;;;;8.37;6.93;;;;;;;;;;5034113;28;20224;-74
2023/03/22 02:10:47;;;;;;;7.03;5.63;;;;;;;;;;5022278;28;20642;-74
2023/03/22 02:13:54;;;;;;;8.43;6.30;;;;;;;;;;5022373;28;20206;-74
2023/03/22 02:17:52;;;;;;;9.60;6.87;;;;;;;;;;5022354;28;20694;-75
2023/03/22 02:21:20;;;;;;;9.33;6.60;;;;;;;;;;5032655;28;20188;-74
2023/03/22 02:25:00;;;;;;;7.80;6.30;;;;;;;;;;5033959;28;20173;-74
2023/03/22 02:28:36;;;;;;;6.63;5.93;;;;;;;;;;5021976;28;20220;-74
2023/03/22 02:32:03;;;;;;;7.23;6.30;;;;;;;;;;5022469;28;20184;-74
2023/03/22 02:35:32;;;;;;;11.27;6.37;;;;;;;;;;5033234;28;20213;-75
2023/03/22 02:38:53;;;;;;;7.50;5.77;;;;;;;;;;5033127;28;20696;-74
2023/03/22 02:42:16;;;;;;;9.13;6.70;;;;;;;;;;5021715;28;20189;-74
2023/03/22 02:45:29;;;;;;;9.73;5.70;;;;;;;;;;5021899;28;20185;-74
2023/03/22 02:49:03;;;;;;;7.50;6.67;;;;;;;;;;5032898;28;20224;-74
2023/03/22 02:52:17;;;;;;;8.03;6.30;;;;;;;;;;5034282;28;20189;-75
2023/03/22 02:55:38;;;;;;;8.07;7.03;;;;;;;;;;5034071;28;20208;-74
2023/03/22 02:58:45;;;;;;;7.30;6.40;;;;;;;;;;5021403;28;20721;-75
2023/03/22 03:01:53;;;;;;;9.27;6.53;;;;;;;;;;5034120;28;20533;-74
2023/03/22 03:04:58;;;;;;;8.13;6.40;;;;;;;;;;5010519;28;20177;-74
2023/03/22 03:08:03;;;;;;;9.13;6.43;;;;;;;;;;5022370;28;20582;-74
2023/03/22 03:11:09;;;;;;;11.43;6.47;;;;;;;;;;5013293;28;20191;-74
2023/03/22 03:14:28;;;;;;;9.17;6.40;;;;;;;;;;5001948;28;20217;-74
2023/03/22 03:17:39;;;;;;;8.73;6.80;;;;;;;;;;5012819;28;20221;-75
2023/03/22 03:20:59;;;;;;;7.00;6.17;;;;;;;;;;5001770;28;20186;-74
2023/03/22 03:24:15;;;;;;;5.73;5.13;;;;;;;;;;5001429;28;20186;-74
2023/03/22 03:27:34;;;;;;;5.97;5.07;;;;;;;;;;5016280;28;20728;-74
2023/03/22 03:30:47;;;;;;;6.83;5.80;;;;;;;;;;5016224;28;20209;-75
2023/03/22 03:34:02;;;;;;;7.27;5.30;;;;;;;;;;5013639;28;20185;-75
2023/03/22 03:37:12;;;;;;;7.03;5.63;;;;;;;;;;5001226;28;20225;-74
2023/03/22 03:40:22;;;;;;;6.87;5.67;;;;;;;;;;5012985;28;20551;-74
2023/03/22 03:43:26;;;;;;;6.43;5.63;;;;;;;;;;5013053;28;20190;-75
2023/03/22 03:46:30;;;;;;;6.67;5.20;;;;;;;;;;5013756;28;20182;-74
2023/03/22 03:49:35;;;;;;;9.43;5.47;;;;;;;;;;5012674;28;20634;-74
2023/03/22 03:52:39;;;;;;;8.13;5.47;;;;;;;;;;5025223;28;20216;-75
2023/03/22 03:55:43;;;;;;;7.97;5.97;;;;;;;;;;5020903;28;20208;-74
2023/03/22 03:58:47;;;;;;;8.20;6.43;;;;;;;;;;5021006;28;20220;-74
2023/03/22 04:01:51;;;;;;;7.93;5.73;;;;;;;;;;5020994;28;20185;-74
2023/03/22 04:05:02;;;;;;;7.70;5.83;;;;;;;;;;5031984;28;20573;-74
2023/03/22 04:08:07;;;;;;;8.00;5.70;;;;;;;;;;5020513;28;20216;-74
2023/03/22 04:11:11;;;;;;;7.47;5.20;;;;;;;;;;5031913;28;20181;-75
2023/03/22 04:14:16;;;;;;;9.17;5.70;;;;;;;;;;5020734;28;20197;-75
2023/03/22 04:17:24;;;;;;;7.50;6.10;;;;;;;;;;5036056;23;20240;-70
2023/03/22 04:20:29;;;;;;;5.37;4.87;;;;;;;;;;5020874;28;20185;-69
2023/03/22 04:23:34;;;;;;;5.70;5.13;;;;;;;;;;5021082;28;20184;-69
2023/03/22 04:26:38;;;;;;;7.17;5.43;;;;;;;;;;5032593;28;20173;-69
2023/03/22 04:29:53;;;;;;;7.40;5.77;;;;;;;;;;5021025;28;20185;-69
2023/03/22 04:33:21;;;;;;;8.70;5.87;;;;;;;;;;5032040;28;20185;-69
2023/03/22 04:36:45;;;;;;;6.57;5.73;;;;;;;;;;5000666;28;20190;-69
2023/03/22 04:39:59;;;;;;;8.47;5.40;;;;;;;;;;4989818;28;20190;-69
2023/03/22 04:43:12;;;;;;;7.70;5.67;;;;;;;;;;5013585;28;20190;-69
2023/03/22 04:46:24;;;;;;;8.33;5.70;;;;;;;;;;5016072;28;20174;-69
2023/03/22 04:49:37;;;;;;;7.77;5.77;;;;;;;;;;5004209;28;20193;-69
2023/03/22 04:52:41;;;;;;;7.40;5.80;;;;;;;;;;5004170;28;20186;-69
2023/03/22 04:55:45;;;;;;;8.87;5.33;;;;;;;;;;5016590;28;20210;-69
2023/03/22 04:58:49;;;;;;;10.63;5.17;;;;;;;;;;5016003;28;20217;-69
2023/03/22 05:01:53;;;;;;;6.13;5.40;;;;;;;;;;5015279;28;20523;-69
2023/03/22 05:05:02;;;;;;;9.33;5.57;;;;;;;;;;5009795;28;20205;-69
2023/03/22 05:08:14;;;;;;;8.03;5.10;;;;;;;;;;5013430;28;20224;-69
2023/03/22 05:11:26;;;;;;;9.27;6.00;;;;;;;;;;5023830;28;20181;-69
2023/03/22 05:14:43;;;;;;;6.40;5.40;;;;;;;;;;5023488;28;20217;-69
2023/03/22 05:17:49;;;;;;;8.83;5.90;;;;;;;;;;5032255;28;20704;-70
2023/03/22 05:20:55;;;;;;;6.97;5.97;;;;;;;;;;5015871;28;20204;-69
2023/03/22 05:24:01;;;;;;;7.57;6.00;;;;;;;;;;5026151;28;20186;-71
2023/03/22 05:27:05;;;;;;;6.07;5.47;;;;;;;;;;5014938;28;20213;-69
2023/03/22 05:30:10;;;;;;;6.77;6.03;;;;;;;;;;5026396;28;20186;-69
2023/03/22 05:33:23;;;;;;;8.13;6.00;;;;;;;;;;5015455;28;20554;-69
2023/03/22 05:36:31;;;;;;;10.77;6.63;;;;;;;;;;5026197;28;20209;-69
2023/03/22 05:39:47;;;;;;;6.67;5.50;;;;;;;;;;5014775;28;20197;-69
2023/03/22 05:42:52;;;;;;;7.23;5.70;;;;;;;;;;5025896;28;20193;-69
2023/03/22 05:46:05;;;;;;;6.33;5.37;;;;;;;;;;5022020;28;20197;-69
2023/03/22 05:49:33;;;;;;;6.40;5.20;;;;;;;;;;5034282;28;20185;-69
2023/03/22 05:52:38;;;;;;;8.00;5.27;;;;;;;;;;5023084;28;20184;-69
2023/03/22 05:56:08;;;;;;;6.27;5.43;;;;;;;;;;5039951;28;20224;-70
2023/03/22 05:59:12;;;;;;;5.53;4.77;;;;;;;;;;5014423;28;20194;-70
2023/03/22 06:02:17;;;;;;;6.20;5.57;;;;;;;;;;5003447;28;20182;-70
2023/03/22 06:05:21;;;;;;;6.13;5.40;;;;;;;;;;5014108;28;20179;-70
2023/03/22 06:08:27;;;;;;;5.77;5.17;;;;;;;;;;5025444;28;20229;-72
2023/03/22 06:11:34;;;;;;;11.93;5.63;;;;;;;;;;5014912;28;20557;-70
2023/03/22 06:14:39;;;;;;;10.30;5.60;;;;;;;;;;5003341;28;20190;-70
2023/03/22 06:17:58;;;;;;;10.40;6.23;;;;;;;;;;5013584;28;20591;-70
2023/03/22 06:21:06;;;;;;;7.47;5.83;;;;;;;;;;5025144;28;20646;-70
2023/03/22 06:24:11;;;;;;;7.03;5.63;;;;;;;;;;5013720;28;20646;-70
2023/03/22 06:27:16;;;;;;;9.30;6.87;;;;;;;;;;5013709;28;20701;-70
2023/03/22 06:30:20;;;;;;;9.67;7.50;;;;;;;;;;5002811;28;20177;-69
2023/03/22 06:33:44;;;;;;;12.73;8.57;;;;;;;;;;5014028;28;20190;-70
2023/03/22 06:37:00;;;;;;;11.87;7.67;;;;;;;;;;5003792;28;20256;-70
2023/03/22 06:40:11;;;;;;;10.43;8.23;;;;;;;;;;5013747;28;20583;-69
2023/03/22 06:43:15;;;;;;;12.87;8.40;;;;;;;;;;5014141;28;20181;-70
2023/03/22 06:46:22;;;;;;;9.10;7.47;;;;;;;;;;5003054;28;20182;-69
2023/03/22 06:49:36;;;;;;;9.97;7.90;;;;;;;;;;5013230;28;20190;-69
2023/03/22 06:52:40;;;;;;;9.60;7.27;;;;;;;;;;5013172;28;20213;-69
2023/03/22 06:55:45;;;;;;;9.90;7.23;;;;;;;;;;5013352;28;20213;-70
2023/03/22 06:58:57;;;;;;;10.70;7.23;;;;;;;;;;5013484;28;20217;-69
2023/03/22 07:02:01;;;;;;;9.30;7.10;;;;;;;;;;5024756;28;20197;-69
2023/03/22 07:05:07;;;;;;;11.87;7.13;;;;;;;;;;5012924;28;20235;-70
2023/03/22 07:08:11;;;;;;;9.13;7.23;;;;;;;;;;5024134;28;20225;-69
2023/03/22 07:11:21;;;;;;;8.73;7.27;;;;;;;;;;5012987;28;20177;-70
2023/03/22 07:14:33;;;;;;;9.67;7.37;;;;;;;;;;5002930;28;20185;-70
2023/03/22 07:18:10;;;;;;;7.63;6.40;;;;;;;;;;5012676;28;20229;-70
2023/03/22 07:21:16;;;;;;;7.10;6.40;;;;;;;;;;5001599;28;20186;-70
2023/03/22 07:24:24;;;;;;;10.90;7.20;;;;;;;;;;5013108;28;20666;-70
2023/03/22 07:27:29;;;;;;;8.50;6.93;;;;;;;;;;5012477;28;20551;-70
2023/03/22 07:30:36;;;;;;;8.17;7.13;;;;;;;;;;5001394;28;20674;-70
2023/03/22 07:33:41;;;;;;;7.43;6.60;;;;;;;;;;5012768;28;20646;-70
2023/03/22 07:36:45;;;;;;;7.43;6.23;;;;;;;;;;5012576;28;20213;-70
2023/03/22 07:39:50;;;;;;;7.73;6.57;;;;;;;;;;5012638;28;20189;-70
2023/03/22 07:42:55;;;;;;;7.83;6.07;;;;;;;;;;4990422;28;20189;-70
2023/03/22 07:46:13;;;;;;;9.03;6.30;;;;;;;;;;5001448;28;20186;-69
2023/03/22 07:49:33;;;;;;;7.10;5.50;;;;;;;;;;4981528;28;20189;-70
2023/03/22 07:52:43;;;;;;;7.20;6.07;;;;;;;;;;5001331;28;20631;-70
2023/03/22 07:55:47;;;;;;;6.70;6.00;;;;;;;;;;5001238;28;20209;-71
2023/03/22 07:58:51;;;;;;;6.53;5.50;;;;;;;;;;5001332;28;20225;-71
2023/03/22 08:01:55;;;;;;;6.57;5.50;;;;;;;;;;5012244;28;20201;-71
2023/03/22 08:05:07;;;;;;;9.83;6.27;;;;;;;;;;5012536;28;20190;-71
2023/03/22 08:08:14;;;;;;;7.17;6.17;;;;;;;;;;5001776;28;20240;-70
2023/03/22 08:11:19;;;;;;;6.67;5.53;;;;;;;;;;5000849;28;20197;-71
2023/03/22 08:14:23;;;;;;;7.53;5.77;;;;;;;;;;4979221;28;20190;-71
2023/03/22 08:17:29;;;;;;;9.40;5.47;;;;;;;;;;5017867;28;20236;-71
2023/03/22 08:20:33;;;;;;;9.30;5.27;;;;;;;;;;5004875;28;20181;-71
2023/03/22 08:23:43;;;;;;;6.60;5.33;;;;;;;;;;5027340;28;20189;-71
2023/03/22 08:27:02;;;;;;;7.53;5.80;;;;;;;;;;5016536;28;20218;-71
2023/03/22 08:30:26;;;;;;;7.73;5.60;;;;;;;;;;5017224;28;20182;-71
2023/03/22 08:33:32;;;;;;;6.57;5.23;;;;;;;;;;5004997;28;20186;-71
2023/03/22 08:36:37;;;;;;;6.93;5.13;;;;;;;;;;5027159;28;20666;-70
2023/03/22 08:39:42;;;;;;;11.20;5.13;;;;;;;;;;5016034;28;20181;-70
2023/03/22 08:43:10;;;;;;;7.07;5.10;;;;;;;;;;5023157;28;20186;-69
2023/03/22 08:46:14;;;;;;;7.47;4.83;;;;;;;;;;5004579;28;20173;-73
2023/03/22 08:49:19;;;;;;;7.27;5.07;;;;;;;;;;4999447;28;26746;-71
2023/03/22 08:52:34;;;;;;;6.87;4.73;;;;;;;;;;5048898;28;20204;-70
2023/03/22 08:55:47;;;;;;;6.30;4.73;;;;;;;;;;5066283;28;20231;-70
2023/03/22 08:58:51;;;;;;;8.10;5.20;;;;;;;;;;5055461;28;20684;-71
2023/03/22 09:02:24;;;;;;;14.60;6.07;;;;;;;;;;5053942;28;20533;-71
2023/03/22 09:05:28;;;;;;;13.03;5.87;;;;;;;;;;5053325;28;20184;-72
2023/03/22 09:08:33;;;;;;;14.00;5.40;;;;;;;;;;5066571;28;20220;-72
2023/03/22 09:11:43;;;;;;;5.80;4.57;;;;;;;;;;5055012;28;20561;-71
2023/03/22 09:14:48;;;;;;;11.20;4.40;;;;;;;;;;5055173;28;20635;-71
2023/03/22 09:17:53;;;;;;;5.53;4.10;;;;;;;;;;5056529;28;20730;-71
2023/03/22 09:20:57;;;;;;;8.53;4.20;;;;;;;;;;5055006;28;20638;-72
2023/03/22 09:24:07;;;;;;;10.33;3.33;;;;;;;;;;5055188;28;20182;-71
2023/03/22 09:27:21;;;;;;;4.90;2.87;;;;;;;;;;5042994;28;20218;-71
2023/03/22 09:30:27;;;;;;;4.30;3.27;;;;;;;;;;5054016;28;20199;-71
2023/03/22 09:33:33;;;;;;;5.53;3.40;;;;;;;;;;5042996;28;20184;-71
2023/03/22 09:36:38;;;;;;;5.77;3.23;;;;;;;;;;5042990;28;20212;-71
2023/03/22 09:39:43;;;;;;;4.03;3.23;;;;;;;;;;5031680;28;20206;-71
2023/03/22 09:42:53;;;;;;;5.53;3.03;;;;;;;;;;5042998;28;20184;-71
2023/03/22 09:45:58;;;;;;;3.30;3.00;;;;;;;;;;5043360;28;20184;-70
2023/03/22 09:49:25;;;;;;;3.73;3.20;;;;;;;;;;5042939;28;20226;-71
2023/03/22 09:52:29;;;;;;;3.23;2.90;;;;;;;;;;5055142;28;20186;-71
2023/03/22 09:55:42;;;;;;;3.73;2.97;;;;;;;;;;5054768;28;20202;-71
2023/03/22 09:59:05;;;;;;;3.37;2.67;;;;;;;;;;5042359;28;20220;-71
2023/03/22 10:02:44;;;;;;;2.87;2.30;;;;;;;;;;5055032;28;20191;-71
2023/03/22 10:06:14;;;;;;;4.43;2.37;;;;;;;;;;5055300;28;20188;-71
2023/03/22 10:09:33;;;;;;;3.90;2.65;;;;;;;;;;5054898;28;20186;-71
2023/03/22 10:12:43;;;;;;;2.63;2.38;;;;;;;;;;5053717;28;20186;-71
2023/03/22 10:15:51;;;;;;;3.38;1.98;;;;;;;;;;5054600;28;20203;-71
2023/03/22 10:19:03;;;;;;;2.80;2.08;;;;;;;;;;5055085;28;20231;-71
2023/03/22 10:22:11;;;;;;;4.38;2.20;;;;;;;;;;5054209;28;20186;-71
2023/03/22 10:25:20;;;;;;;4.40;2.20;;;;;;;;;;5054491;28;20206;-71
2023/03/22 10:28:30;;;;;;;9.60;2.20;;;;;;;;;;5054352;28;20219;-71
2023/03/22 10:31:34;;;;;;;2.95;2.15;;;;;;;;;;5042145;28;20180;-71
2023/03/22 10:34:39;;;;;;;3.53;2.47;;;;;;;;;;5054034;28;20207;-71
2023/03/22 10:37:46;;;;;;;4.50;2.38;;;;;;;;;;5041438;28;20577;-71
2023/03/22 10:40:54;;;;;;;3.78;2.55;;;;;;;;;;5053173;28;20183;-71
2023/03/22 10:44:01;;;;;;;2.65;2.10;;;;;;;;;;5053814;28;20181;-71
2023/03/22 10:47:09;;;;;;;2.85;1.95;;;;;;;;;;5053835;28;20561;-71
2023/03/22 10:50:30;;;;;;;2.25;2.05;;;;;;;;;;5052958;28;20182;-71
2023/03/22 10:53:46;;;;;;;1.90;1.70;;;;;;;;;;5053191;28;20185;-71
2023/03/22 10:56:50;;;;;;;3.25;1.55;;;;;;;;;;5041217;28;20212;-72
2023/03/22 10:59:56;;;;;;;13.57;1.77;;;;;;;;;;5053583;28;20250;-71
2023/03/22 11:03:00;;;;;;;1.75;1.60;;;;;;;;;;5053820;28;20524;-71
2023/03/22 11:06:18;;;;;;;1.50;1.40;;;;;;;;;;5053919;28;20531;-71
2023/03/22 11:09:23;;;;;;;1.45;1.27;;;;;;;;;;5053378;28;20210;-71
2023/03/22 11:12:27;;;;;;;2.38;1.40;;;;;;;;;;5030076;28;20647;-71
2023/03/22 11:15:34;;;;;;;2.13;1.55;;;;;;;;;;5053654;28;20635;-71
2023/03/22 11:18:40;;;;;;;3.20;1.58;;;;;;;;;;5053306;28;20558;-71
2023/03/22 11:21:44;;;;;;;2.15;1.40;;;;;;;;;;5053316;28;20532;-71
2023/03/22 11:24:50;;;;;;;3.92;1.50;;;;;;;;;;5053402;28;20187;-71
2023/03/22 11:28:19;;;;;;;2.33;1.57;;;;;;;;;;5053326;28;20561;-71
2023/03/22 11:31:24;;;;;;;1.73;1.30;;;;;;;;;;5022243;28;20200;-71
2023/03/22 11:34:30;;;;;;;2.90;1.63;;;;;;;;;;5052414;28;20192;-71
2023/03/22 11:37:44;;;;;;;2.57;1.87;;;;;;;;;;5053583;28;20238;-71
2023/03/22 11:40:54;;;;;;;7.53;1.40;;;;;;;;;;5041143;28;20641;-71
2023/03/22 11:44:12;;;;;;;7.33;1.67;;;;;;;;;;5053670;28;20187;-71
2023/03/22 11:47:16;;;;;;;2.33;1.90;;;;;;;;;;5053640;28;20562;-71
2023/03/22 11:50:29;;;;;;;5.13;1.73;;;;;;;;;;5052940;28;20202;-72
2023/03/22 11:53:37;;;;;;;2.30;1.70;;;;;;;;;;5059696;28;20196;-71
2023/03/22 11:56:45;;;;;;;1.10;1.00;;;;;;;;;;5059836;28;20752;-72
2023/03/22 12:00:09;;;;;;;1.83;1.10;;;;;;;;;;5059740;28;20206;-71
2023/03/22 12:03:16;;;;;;;1.45;1.00;;;;;;;;;;5059496;28;20184;-71
2023/03/22 12:06:25;;;;;;;2.27;1.07;;;;;;;;;;5059958;28;20179;-71
2023/03/22 12:09:57;;;;;;;2.78;1.10;;;;;;;;;;5059917;28;20536;-71
2023/03/22 12:13:06;;;;;;;2.17;1.13;;;;;;;;;;5039288;23;20236;-74
2023/03/22 12:16:13;;;;;;;4.05;1.00;;;;;;;;;;5027209;28;20181;-75
2023/03/22 12:19:59;;;;;;;7.10;1.70;;;;;;;;;;5007757;28;20181;-75
2023/03/22 12:23:13;;;;;;;3.17;1.45;;;;;;;;;;5025258;28;20641;-75
2023/03/22 12:26:22;;;;;;;2.85;1.33;;;;;;;;;;5019756;28;20195;-74
2023/03/22 12:29:27;;;;;;;3.05;1.20;;;;;;;;;;5007847;28;20646;-75
2023/03/22 12:32:40;;;;;;;2.03;1.42;;;;;;;;;;5019690;28;20188;-75
2023/03/22 12:35:45;;;;;;;2.70;1.40;;;;;;;;;;4996226;28;20546;-75
2023/03/22 12:38:57;;;;;;;1.55;1.40;;;;;;;;;;5019492;28;20235;-75
2023/03/22 12:42:11;;;;;;;2.40;1.55;;;;;;;;;;5007284;28;20193;-75
2023/03/22 12:45:24;;;;;;;1.90;1.38;;;;;;;;;;5019574;28;20193;-75
2023/03/22 12:48:39;;;;;;;2.05;1.15;;;;;;;;;;5018465;28;20220;-75
2023/03/22 12:51:45;;;;;;;1.85;1.10;;;;;;;;;;5019254;28;20190;-75
2023/03/22 12:54:51;;;;;;;2.90;1.20;;;;;;;;;;5019331;28;20255;-75
2023/03/22 12:57:56;;;;;;;3.92;1.20;;;;;;;;;;5019198;28;20242;-75
2023/03/22 13:01:29;;;;;;;1.30;1.20;;;;;;;;;;5019689;28;20199;-76
2023/03/22 13:04:36;;;;;;;2.95;1.50;;;;;;;;;;5004225;28;20255;-75
2023/03/22 13:07:46;;;;;;;3.20;1.15;;;;;;;;;;5016491;28;20219;-76
2023/03/22 13:10:58;;;;;;;1.42;1.10;;;;;;;;;;5004368;28;20192;-75
2023/03/22 13:14:02;;;;;;;1.70;1.10;;;;;;;;;;5003669;28;20205;-75
2023/03/22 13:17:06;;;;;;;1.75;1.42;;;;;;;;;;5016069;28;20227;-76
2023/03/22 13:20:10;;;;;;;1.65;1.20;;;;;;;;;;5015907;28;20184;-75
2023/03/22 13:23:25;;;;;;;1.55;1.42;;;;;;;;;;5003915;28;20204;-75
2023/03/22 13:26:38;;;;;;;1.85;1.38;;;;;;;;;;5004429;28;20186;-76
2023/03/22 13:29:52;;;;;;;2.33;1.20;;;;;;;;;;5004155;28;20183;-76
2023/03/22 13:33:13;;;;;;;4.67;1.43;;;;;;;;;;5016339;28;20184;-75
2023/03/22 13:36:23;;;;;;;3.10;1.50;;;;;;;;;;5015559;28;20191;-75
2023/03/22 13:39:34;;;;;;;20.17;2.70;;;;;;;;;;5016300;28;20183;-76
2023/03/22 13:42:40;;;;;;;3.70;1.60;;;;;;;;;;5015808;28;20652;-76
2023/03/22 13:46:05;;;;;;;3.97;1.00;;;;;;;;;;5015555;28;20197;-75
2023/03/22 13:49:30;;;;;;;4.57;1.30;;;;;;;;;;5015620;28;20187;-75
2023/03/22 13:52:40;;;;;;;2.30;1.40;;;;;;;;;;5015583;28;20188;-76
2023/03/22 13:55:45;;;;;;;3.27;1.40;;;;;;;;;;5015463;28;20189;-75
2023/03/22 13:58:52;;;;;;;6.93;1.30;;;;;;;;;;4991623;28;20236;-75
2023/03/22 14:02:20;;;;;;;3.07;1.30;;;;;;;;;;5014907;28;20201;-76
2023/03/22 14:05:31;;;;;;;2.03;1.33;;;;;;;;;;4992032;28;20186;-75
2023/03/22 14:08:36;;;;;;;1.37;0.90;;;;;;;;;;5014535;28;20225;-74
2023/03/22 14:11:54;;;;;;;1.57;0.90;;;;;;;;;;5003044;28;20552;-75
2023/03/22 14:15:05;;;;;;;1.67;1.00;;;;;;;;;;5002022;28;20542;-75
2023/03/22 14:18:25;;;;;;;1.80;1.10;;;;;;;;;;5014607;28;20224;-75
2023/03/22 14:21:42;;;;;;;3.27;1.20;;;;;;;;;;4991840;28;20187;-76
2023/03/22 14:24:48;;;;;;;5.13;0.90;;;;;;;;;;5015097;28;20185;-75
2023/03/22 14:27:54;;;;;;;5.73;1.00;;;;;;;;;;5013590;28;20224;-75
2023/03/22 14:30:58;;;;;;;1.53;1.03;;;;;;;;;;5015005;28;20187;-75
2023/03/22 14:34:06;;;;;;;1.63;1.00;;;;;;;;;;4983053;28;20183;-75
2023/03/22 14:37:13;;;;;;;3.20;1.03;;;;;;;;;;4995161;28;20704;-75
2023/03/22 14:40:29;;;;;;;3.73;1.03;;;;;;;;;;4995068;28;20185;-75
2023/03/22 14:43:33;;;;;;;3.67;0.90;;;;;;;;;;4994762;28;20194;-76
2023/03/22 14:46:38;;;;;;;1.17;0.80;;;;;;;;;;4994281;28;20186;-75
2023/03/22 14:49:45;;;;;;;1.77;0.90;;;;;;;;;;4994769;28;20176;-75
2023/03/22 14:52:51;;;;;;;4.67;1.30;;;;;;;;;;4994651;28;20519;-75
2023/03/22 14:55:55;;;;;;;1.03;0.90;;;;;;;;;;4982731;28;20179;-76
2023/03/22 14:59:02;;;;;;;6.20;1.00;;;;;;;;;;4994137;28;20227;-75
2023/03/22 15:02:25;;;;;;;13.13;2.33;;;;;;;;;;4994456;28;20664;-75
2023/03/22 15:05:36;;;;;;;1.77;0.90;;;;;;;;;;4982717;28;20193;-75
2023/03/22 15:08:45;;;;;;;6.33;1.23;;;;;;;;;;4982387;28;20211;-75
2023/03/22 15:11:55;;;;;;;3.40;1.10;;;;;;;;;;4994090;28;20211;-75
2023/03/22 15:14:59;;;;;;;3.27;1.10;;;;;;;;;;4971539;28;20624;-75
2023/03/22 15:18:05;;;;;;;1.60;1.03;;;;;;;;;;4994158;28;20226;-74
2023/03/22 15:21:09;;;;;;;4.93;1.00;;;;;;;;;;4982064;28;20186;-75
2023/03/22 15:24:27;;;;;;;5.17;1.10;;;;;;;;;;4993847;28;20186;-74
2023/03/22 15:27:32;;;;;;;1.23;0.93;;;;;;;;;;4993497;28;20226;-75
2023/03/22 15:30:36;;;;;;;1.50;1.13;;;;;;;;;;4994055;28;20186;-75
2023/03/22 15:33:41;;;;;;;3.33;1.27;;;;;;;;;;4982278;28;20182;-74
2023/03/22 15:36:48;;;;;;;4.00;1.20;;;;;;;;;;4981896;28;20525;-75
2023/03/22 15:39:53;;;;;;;1.67;1.27;;;;;;;;;;4994207;28;20214;-74
2023/03/22 15:43:29;;;;;;;6.60;1.30;;;;;;;;;;4994192;28;20181;-74
2023/03/22 15:46:52;;;;;;;17.57;2.10;;;;;;;;;;4981879;28;20178;-74
2023/03/22 15:49:57;;;;;;;3.93;1.20;;;;;;;;;;4994406;28;20178;-75
2023/03/22 15:53:01;;;;;;;9.33;1.73;;;;;;;;;;4993796;28;20206;-74
2023/03/22 15:56:21;;;;;;;4.03;1.50;;;;;;;;;;4993741;28;20202;-75
2023/03/22 15:59:29;;;;;;;1.70;1.20;;;;;;;;;;4982093;28;20214;-74
2023/03/22 16:02:34;;;;;;;2.30;1.20;;;;;;;;;;4993770;28;20190;-75
2023/03/22 16:05:44;;;;;;;2.83;1.40;;;;;;;;;;4981787;28;20186;-75
2023/03/22 16:08:48;;;;;;;1.00;0.87;;;;;;;;;;4981726;28;20218;-75
2023/03/22 16:11:52;;;;;;;3.17;1.20;;;;;;;;;;4981724;28;20178;-76
2023/03/22 16:14:56;;;;;;;1.73;1.30;;;;;;;;;;4981354;28;20198;-75
2023/03/22 16:18:01;;;;;;;2.03;1.00;;;;;;;;;;4993517;28;20229;-76
2023/03/22 16:21:05;;;;;;;3.37;1.20;;;;;;;;;;4993568;28;20647;-75
2023/03/22 16:24:09;;;;;;;1.53;0.83;;;;;;;;;;4993973;28;20182;-76
2023/03/22 16:27:17;;;;;;;2.00;1.27;;;;;;;;;;4993495;28;20567;-75
2023/03/22 16:30:21;;;;;;;1.50;1.13;;;;;;;;;;4993413;28;20179;-75
2023/03/22 16:33:25;;;;;;;1.73;1.20;;;;;;;;;;4993432;28;20186;-76
2023/03/22 16:36:30;;;;;;;1.87;1.10;;;;;;;;;;4981396;28;20206;-75
2023/03/22 16:39:39;;;;;;;5.10;1.53;;;;;;;;;;4983284;28;20214;-75
2023/03/22 16:42:44;;;;;;;2.30;1.43;;;;;;;;;;4992136;28;20248;-74
2023/03/22 16:45:48;;;;;;;3.07;1.20;;;;;;;;;;4991498;28;20654;-74
2023/03/22 16:48:53;;;;;;;2.97;1.17;;;;;;;;;;4979623;28;20601;-74
2023/03/22 16:51:58;;;;;;;1.10;0.90;;;;;;;;;;4977421;28;20183;-75
2023/03/22 16:55:02;;;;;;;1.97;1.00;;;;;;;;;;4994072;28;20548;-75
2023/03/22 16:58:06;;;;;;;1.47;1.13;;;;;;;;;;4996392;28;20222;-75
2023/03/22 17:01:12;;;;;;;4.07;1.40;;;;;;;;;;4996725;28;20186;-75
2023/03/22 17:04:16;;;;;;;7.07;1.20;;;;;;;;;;4996492;28;20178;-74
2023/03/22 17:07:26;;;;;;;2.30;1.17;;;;;;;;;;4988462;28;20226;-74
2023/03/22 17:10:31;;;;;;;4.47;1.63;;;;;;;;;;4985561;28;20205;-74
2023/03/22 17:13:35;;;;;;;2.03;1.23;;;;;;;;;;4996344;28;20206;-75
2023/03/22 17:16:39;;;;;;;10.80;1.40;;;;;;;;;;4966486;28;20683;-75
2023/03/22 17:19:45;;;;;;;4.80;1.27;;;;;;;;;;4976650;28;20214;-74
2023/03/22 17:22:50;;;;;;;4.00;1.13;;;;;;;;;;4977144;28;20175;-75
2023/03/22 17:25:54;;;;;;;9.30;1.13;;;;;;;;;;4975869;28;20537;-74
2023/03/22 17:28:58;;;;;;;4.17;1.20;;;;;;;;;;4964706;28;20223;-74
2023/03/22 17:32:05;;;;;;;20.13;1.97;;;;;;;;;;4976125;28;20183;-74
2023/03/22 17:35:19;;;;;;;65.13;4.67;;;;;;;;;;4976695;28;20190;-75
2023/03/22 17:38:24;;;;;;;38.93;2.83;;;;;;;;;;4964443;28;20218;-74
2023/03/22 17:41:28;;;;;;;16.83;1.73;;;;;;;;;;4976349;28;20187;-74
2023/03/22 17:44:32;;;;;;;12.43;1.50;;;;;;;;;;4976507;28;20179;-75
2023/03/22 17:47:36;;;;;;;13.93;1.70;;;;;;;;;;4975892;28;20231;-76
2023/03/22 17:50:41;;;;;;;4.17;1.30;;;;;;;;;;4975870;28;20668;-75
2023/03/22 17:53:45;;;;;;;2.40;1.00;;;;;;;;;;4976218;28;20206;-75
2023/03/22 17:56:49;;;;;;;3.77;1.10;;;;;;;;;;4964237;28;20191;-75
2023/03/22 17:59:55;;;;;;;2.43;1.03;;;;;;;;;;4976297;28;20230;-75
2023/03/22 18:02:59;;;;;;;2.97;1.20;;;;;;;;;;4975834;28;20643;-75
2023/03/22 18:06:04;;;;;;;3.00;1.00;;;;;;;;;;4993446;28;20693;-76
2023/03/22 18:09:08;;;;;;;1.87;1.00;;;;;;;;;;4983497;28;20182;-76
2023/03/22 18:12:12;;;;;;;3.57;1.00;;;;;;;;;;4994367;28;20687;-76
2023/03/22 18:15:18;;;;;;;5.33;1.10;;;;;;;;;;4995325;28;20182;-75
2023/03/22 18:18:22;;;;;;;3.17;1.10;;;;;;;;;;4983169;28;20226;-75
2023/03/22 18:21:26;;;;;;;4.03;1.10;;;;;;;;;;4995324;28;20182;-75
2023/03/22 18:24:30;;;;;;;2.90;1.00;;;;;;;;;;4995203;28;20186;-75
2023/03/22 18:27:35;;;;;;;1.60;1.03;;;;;;;;;;4995075;28;20218;-74
2023/03/22 18:30:39;;;;;;;3.70;1.40;;;;;;;;;;4994541;28;20194;-75
2023/03/22 18:33:44;;;;;;;3.47;1.27;;;;;;;;;;4982958;28;20198;-75
2023/03/22 18:36:48;;;;;;;4.40;1.40;;;;;;;;;;4982871;28;20632;-75
2023/03/22 18:39:53;;;;;;;2.60;1.07;;;;;;;;;;4993844;28;20548;-75
2023/03/22 18:42:57;;;;;;;2.07;1.20;;;;;;;;;;4970386;28;20678;-75
2023/03/22 18:46:09;;;;;;;3.80;1.03;;;;;;;;;;4987807;28;20682;-74
2023/03/22 18:49:14;;;;;;;3.80;1.40;;;;;;;;;;4982507;28;20198;-74
2023/03/22 18:52:17;;;;;;;3.47;1.20;;;;;;;;;;4982425;28;20191;-74